Terminal Aerodrome Forecast
Issued by NWS Portland, OR

Home | Current Version | Previous Version | Text Only | Print | Product List | Glossary On
Versions: 1 2 3 4 5 6 7 8 9 10 11 12 13 14 15 16 17
000
FTUS46 KPQR 161738
TAFHIO
TAF
KHIO 161738Z 1618/1718 19009KT P6SM VCSH OVC035
     FM170300 20003KT P6SM -SHRA SCT035 OVC050
     FM170800 19005KT P6SM -RA SCT025 BKN040
     FM171200 17006KT P6SM -RA BKN015 OVC025=

USA.gov is the U.S. government's official web portal to all federal, state and local government web resources and services.